sensor_id;sensor_type;location;lat;lon;timestamp;P1;durP1;ratioP1;P2;durP2;ratioP2
69197;SDS011;56311;50.298;8.514;2023-09-18T00:00:00;10.3;;;5.3;;
69197;SDS011;56311;50.298;8.514;2023-09-18T00:02:00;9.4;;;5.0;;
69197;SDS011;56311;50.298;8.514;2023-09-18T00:04:00;12.4;;;5.6;;
69197;SDS011;56311;50.298;8.514;2023-09-18T00:06:00;12.4;;;5.5;;
69197;SDS011;56311;50.298;8.514;2023-09-18T00:08:00;12.5;;;5.5;;
69197;SDS011;56311;50.298;8.514;2023-09-18T00:10:00;10.0;;;5.2;;
69197;SDS011;56311;50.298;8.514;2023-09-18T00:12:00;10.5;;;5.0;;
69197;SDS011;56311;50.298;8.514;2023-09-18T00:14:00;10.0;;;5.3;;
69197;SDS011;56311;50.298;8.514;2023-09-18T00:16:00;11.0;;;5.3;;
69197;SDS011;56311;50.298;8.514;2023-09-18T00:18:00;10.6;;;5.0;;
69197;SDS011;56311;50.298;8.514;2023-09-18T00:20:00;8.8;;;4.7;;
69197;SDS011;56311;50.298;8.514;2023-09-18T00:22:00;9.8;;;5.0;;
69197;SDS011;56311;50.298;8.514;2023-09-18T00:24:00;10.1;;;4.8;;
69197;SDS011;56311;50.298;8.514;2023-09-18T00:26:00;8.4;;;4.9;;
69197;SDS011;56311;50.298;8.514;2023-09-18T00:28:00;8.8;;;4.9;;
69197;SDS011;56311;50.298;8.514;2023-09-18T00:30:00;10.7;;;5.0;;
69197;SDS011;56311;50.298;8.514;2023-09-18T00:32:00;9.6;;;5.0;;
69197;SDS011;56311;50.298;8.514;2023-09-18T00:34:00;10.8;;;4.9;;
69197;SDS011;56311;50.298;8.514;2023-09-18T00:36:00;11.2;;;4.9;;
69197;SDS011;56311;50.298;8.514;2023-09-18T00:38:00;10.4;;;4.9;;
69197;SDS011;56311;50.298;8.514;2023-09-18T00:40:00;12.0;;;4.6;;
69197;SDS011;56311;50.298;8.514;2023-09-18T00:42:00;10.6;;;4.9;;
69197;SDS011;56311;50.298;8.514;2023-09-18T00:44:00;9.8;;;4.7;;
69197;SDS011;56311;50.298;8.514;2023-09-18T00:46:00;8.7;;;4.7;;
69197;SDS011;56311;50.298;8.514;2023-09-18T00:48:00;7.7;;;4.3;;
69197;SDS011;56311;50.298;8.514;2023-09-18T00:50:00;8.8;;;4.7;;
69197;SDS011;56311;50.298;8.514;2023-09-18T00:52:01;11.0;;;4.9;;
69197;SDS011;56311;50.298;8.514;2023-09-18T00:54:01;9.9;;;4.5;;
69197;SDS011;56311;50.298;8.514;2023-09-18T00:56:00;11.1;;;5.0;;
69197;SDS011;56311;50.298;8.514;2023-09-18T00:58:00;8.3;;;4.7;;
69197;SDS011;56311;50.298;8.514;2023-09-18T01:00:00;11.9;;;5.2;;
69197;SDS011;56311;50.298;8.514;2023-09-18T01:02:00;10.8;;;4.8;;
69197;SDS011;56311;50.298;8.514;2023-09-18T01:04:00;10.7;;;4.8;;
69197;SDS011;56311;50.298;8.514;2023-09-18T01:06:00;9.5;;;4.8;;
69197;SDS011;56311;50.298;8.514;2023-09-18T01:08:00;9.7;;;5.0;;
69197;SDS011;56311;50.298;8.514;2023-09-18T01:10:00;9.9;;;4.6;;
69197;SDS011;56311;50.298;8.514;2023-09-18T01:12:01;10.5;;;4.9;;
69197;SDS011;56311;50.298;8.514;2023-09-18T01:14:01;10.5;;;4.6;;
69197;SDS011;56311;50.298;8.514;2023-09-18T01:16:01;8.8;;;4.7;;
69197;SDS011;56311;50.298;8.514;2023-09-18T01:18:00;9.2;;;4.8;;
69197;SDS011;56311;50.298;8.514;2023-09-18T01:20:00;10.4;;;4.6;;
69197;SDS011;56311;50.298;8.514;2023-09-18T01:22:00;9.5;;;4.5;;
69197;SDS011;56311;50.298;8.514;2023-09-18T01:24:00;9.3;;;5.0;;
69197;SDS011;56311;50.298;8.514;2023-09-18T01:26:00;8.3;;;4.7;;
69197;SDS011;56311;50.298;8.514;2023-09-18T01:28:00;9.1;;;4.8;;
69197;SDS011;56311;50.298;8.514;2023-09-18T01:30:00;9.2;;;5.0;;
69197;SDS011;56311;50.298;8.514;2023-09-18T01:32:00;8.9;;;4.9;;
69197;SDS011;56311;50.298;8.514;2023-09-18T01:34:00;9.9;;;5.0;;
69197;SDS011;56311;50.298;8.514;2023-09-18T01:36:00;11.2;;;5.3;;
69197;SDS011;56311;50.298;8.514;2023-09-18T01:38:00;9.6;;;5.2;;
69197;SDS011;56311;50.298;8.514;2023-09-18T01:40:00;10.2;;;5.1;;
69197;SDS011;56311;50.298;8.514;2023-09-18T01:42:00;8.1;;;4.8;;
69197;SDS011;56311;50.298;8.514;2023-09-18T01:44:00;10.8;;;4.8;;
69197;SDS011;56311;50.298;8.514;2023-09-18T01:46:00;10.1;;;4.8;;
69197;SDS011;56311;50.298;8.514;2023-09-18T01:48:00;10.3;;;5.1;;
69197;SDS011;56311;50.298;8.514;2023-09-18T01:50:02;8.1;;;5.1;;
69197;SDS011;56311;50.298;8.514;2023-09-18T01:52:00;9.0;;;4.9;;
69197;SDS011;56311;50.298;8.514;2023-09-18T01:54:00;9.1;;;4.8;;
69197;SDS011;56311;50.298;8.514;2023-09-18T01:56:00;12.6;;;4.9;;
69197;SDS011;56311;50.298;8.514;2023-09-18T01:58:00;7.5;;;4.4;;
69197;SDS011;56311;50.298;8.514;2023-09-18T02:00:00;9.0;;;4.9;;
69197;SDS011;56311;50.298;8.514;2023-09-18T02:02:00;8.6;;;4.6;;
69197;SDS011;56311;50.298;8.514;2023-09-18T02:04:01;9.0;;;4.7;;
69197;SDS011;56311;50.298;8.514;2023-09-18T02:06:00;9.7;;;4.9;;
69197;SDS011;56311;50.298;8.514;2023-09-18T02:08:01;8.8;;;4.9;;
69197;SDS011;56311;50.298;8.514;2023-09-18T02:10:00;9.3;;;4.6;;
69197;SDS011;56311;50.298;8.514;2023-09-18T02:12:00;9.3;;;4.4;;
69197;SDS011;56311;50.298;8.514;2023-09-18T02:14:00;7.8;;;4.8;;
69197;SDS011;56311;50.298;8.514;2023-09-18T02:16:01;9.6;;;4.9;;
69197;SDS011;56311;50.298;8.514;2023-09-18T02:18:01;7.5;;;4.5;;
69197;SDS011;56311;50.298;8.514;2023-09-18T02:20:00;7.9;;;4.6;;
69197;SDS011;56311;50.298;8.514;2023-09-18T02:22:00;7.6;;;4.8;;
69197;SDS011;56311;50.298;8.514;2023-09-18T02:24:00;9.2;;;4.5;;
69197;SDS011;56311;50.298;8.514;2023-09-18T02:26:00;7.4;;;4.2;;
69197;SDS011;56311;50.298;8.514;2023-09-18T02:28:01;8.6;;;4.6;;
69197;SDS011;56311;50.298;8.514;2023-09-18T02:30:01;7.6;;;4.3;;
69197;SDS011;56311;50.298;8.514;2023-09-18T02:32:00;7.1;;;4.0;;
69197;SDS011;56311;50.298;8.514;2023-09-18T02:34:00;8.2;;;3.2;;
69197;SDS011;56311;50.298;8.514;2023-09-18T02:36:00;8.4;;;3.2;;
69197;SDS011;56311;50.298;8.514;2023-09-18T02:38:00;5.7;;;3.0;;
69197;SDS011;56311;50.298;8.514;2023-09-18T02:40:01;8.5;;;2.7;;
69197;SDS011;56311;50.298;8.514;2023-09-18T02:42:00;7.7;;;2.8;;
69197;SDS011;56311;50.298;8.514;2023-09-18T02:44:00;6.8;;;2.8;;
69197;SDS011;56311;50.298;8.514;2023-09-18T02:46:00;7.5;;;3.1;;
69197;SDS011;56311;50.298;8.514;2023-09-18T02:48:00;7.1;;;2.8;;
69197;SDS011;56311;50.298;8.514;2023-09-18T02:50:00;7.0;;;3.2;;
69197;SDS011;56311;50.298;8.514;2023-09-18T02:52:00;7.0;;;2.9;;
69197;SDS011;56311;50.298;8.514;2023-09-18T02:54:00;9.2;;;3.4;;
69197;SDS011;56311;50.298;8.514;2023-09-18T02:56:00;8.7;;;3.1;;
69197;SDS011;56311;50.298;8.514;2023-09-18T02:58:00;7.3;;;3.3;;
69197;SDS011;56311;50.298;8.514;2023-09-18T03:00:00;6.9;;;3.3;;
69197;SDS011;56311;50.298;8.514;2023-09-18T03:02:00;6.8;;;3.1;;
69197;SDS011;56311;50.298;8.514;2023-09-18T03:04:00;7.1;;;2.9;;
69197;SDS011;56311;50.298;8.514;2023-09-18T03:06:00;7.8;;;2.9;;
69197;SDS011;56311;50.298;8.514;2023-09-18T03:08:00;7.2;;;3.0;;
69197;SDS011;56311;50.298;8.514;2023-09-18T03:10:00;9.6;;;3.6;;
69197;SDS011;56311;50.298;8.514;2023-09-18T03:12:00;6.6;;;3.4;;
69197;SDS011;56311;50.298;8.514;2023-09-18T03:14:00;7.9;;;3.5;;
69197;SDS011;56311;50.298;8.514;2023-09-18T03:16:00;7.8;;;3.5;;
69197;SDS011;56311;50.298;8.514;2023-09-18T03:18:00;8.7;;;3.6;;
69197;SDS011;56311;50.298;8.514;2023-09-18T03:20:00;8.3;;;3.6;;
69197;SDS011;56311;50.298;8.514;2023-09-18T03:22:00;9.6;;;3.5;;
69197;SDS011;56311;50.298;8.514;2023-09-18T03:24:00;8.0;;;3.2;;
69197;SDS011;56311;50.298;8.514;2023-09-18T03:26:00;8.6;;;3.1;;
69197;SDS011;56311;50.298;8.514;2023-09-18T03:28:00;10.5;;;3.7;;
69197;SDS011;56311;50.298;8.514;2023-09-18T03:30:00;9.9;;;3.7;;
69197;SDS011;56311;50.298;8.514;2023-09-18T03:32:00;11.4;;;3.6;;
69197;SDS011;56311;50.298;8.514;2023-09-18T03:34:00;8.8;;;3.4;;
69197;SDS011;56311;50.298;8.514;2023-09-18T03:36:00;9.7;;;3.6;;
69197;SDS011;56311;50.298;8.514;2023-09-18T03:38:00;9.2;;;3.7;;
69197;SDS011;56311;50.298;8.514;2023-09-18T03:40:00;7.7;;;3.6;;
69197;SDS011;56311;50.298;8.514;2023-09-18T03:42:00;8.4;;;3.4;;
69197;SDS011;56311;50.298;8.514;2023-09-18T03:44:00;10.6;;;3.7;;
69197;SDS011;56311;50.298;8.514;2023-09-18T03:46:03;9.5;;;3.2;;
69197;SDS011;56311;50.298;8.514;2023-09-18T03:48:00;8.4;;;2.9;;
69197;SDS011;56311;50.298;8.514;2023-09-18T03:50:00;9.6;;;3.1;;
69197;SDS011;56311;50.298;8.514;2023-09-18T03:52:01;7.7;;;2.9;;
69197;SDS011;56311;50.298;8.514;2023-09-18T03:54:00;10.6;;;3.1;;
69197;SDS011;56311;50.298;8.514;2023-09-18T03:56:00;8.3;;;2.9;;
69197;SDS011;56311;50.298;8.514;2023-09-18T03:58:00;10.8;;;3.2;;
69197;SDS011;56311;50.298;8.514;2023-09-18T04:00:00;10.3;;;2.7;;
69197;SDS011;56311;50.298;8.514;2023-09-18T04:02:00;12.2;;;3.2;;
69197;SDS011;56311;50.298;8.514;2023-09-18T04:04:00;11.5;;;3.4;;
69197;SDS011;56311;50.298;8.514;2023-09-18T04:06:00;12.3;;;3.2;;
69197;SDS011;56311;50.298;8.514;2023-09-18T04:08:00;12.1;;;3.0;;
69197;SDS011;56311;50.298;8.514;2023-09-18T04:10:00;10.6;;;3.0;;
69197;SDS011;56311;50.298;8.514;2023-09-18T04:12:00;9.5;;;3.0;;
69197;SDS011;56311;50.298;8.514;2023-09-18T04:14:00;10.8;;;3.0;;
69197;SDS011;56311;50.298;8.514;2023-09-18T04:16:00;12.5;;;3.2;;
69197;SDS011;56311;50.298;8.514;2023-09-18T04:18:00;11.1;;;2.9;;
69197;SDS011;56311;50.298;8.514;2023-09-18T04:20:00;12.7;;;3.3;;
69197;SDS011;56311;50.298;8.514;2023-09-18T04:22:00;11.5;;;3.1;;
69197;SDS011;56311;50.298;8.514;2023-09-18T04:24:00;10.0;;;3.5;;
69197;SDS011;56311;50.298;8.514;2023-09-18T04:26:00;14.3;;;3.6;;
69197;SDS011;56311;50.298;8.514;2023-09-18T04:28:00;12.9;;;3.4;;
69197;SDS011;56311;50.298;8.514;2023-09-18T04:30:00;13.5;;;3.2;;
69197;SDS011;56311;50.298;8.514;2023-09-18T04:32:00;9.8;;;3.3;;
69197;SDS011;56311;50.298;8.514;2023-09-18T04:34:00;12.0;;;3.5;;
69197;SDS011;56311;50.298;8.514;2023-09-18T04:36:00;13.4;;;3.4;;
69197;SDS011;56311;50.298;8.514;2023-09-18T04:38:00;14.8;;;3.5;;
69197;SDS011;56311;50.298;8.514;2023-09-18T04:40:00;10.5;;;3.4;;
69197;SDS011;56311;50.298;8.514;2023-09-18T04:42:01;11.1;;;3.7;;
69197;SDS011;56311;50.298;8.514;2023-09-18T04:44:00;10.9;;;3.6;;
69197;SDS011;56311;50.298;8.514;2023-09-18T04:46:00;12.2;;;3.3;;
69197;SDS011;56311;50.298;8.514;2023-09-18T04:48:00;13.1;;;3.5;;
69197;SDS011;56311;50.298;8.514;2023-09-18T04:50:00;11.6;;;2.9;;
69197;SDS011;56311;50.298;8.514;2023-09-18T04:52:00;10.3;;;3.1;;
69197;SDS011;56311;50.298;8.514;2023-09-18T04:54:00;10.5;;;3.3;;
69197;SDS011;56311;50.298;8.514;2023-09-18T04:56:00;11.5;;;3.2;;
69197;SDS011;56311;50.298;8.514;2023-09-18T04:58:00;11.2;;;3.4;;
69197;SDS011;56311;50.298;8.514;2023-09-18T05:00:01;12.5;;;3.5;;
69197;SDS011;56311;50.298;8.514;2023-09-18T05:02:00;9.8;;;3.1;;
69197;SDS011;56311;50.298;8.514;2023-09-18T05:04:00;10.9;;;3.3;;
69197;SDS011;56311;50.298;8.514;2023-09-18T05:06:00;10.7;;;3.0;;
69197;SDS011;56311;50.298;8.514;2023-09-18T05:08:01;9.0;;;3.2;;
69197;SDS011;56311;50.298;8.514;2023-09-18T05:10:00;13.2;;;3.6;;
69197;SDS011;56311;50.298;8.514;2023-09-18T05:12:00;12.3;;;3.1;;
69197;SDS011;56311;50.298;8.514;2023-09-18T05:14:00;8.6;;;3.6;;
69197;SDS011;56311;50.298;8.514;2023-09-18T05:16:00;11.8;;;3.4;;
69197;SDS011;56311;50.298;8.514;2023-09-18T05:18:00;9.9;;;3.4;;
69197;SDS011;56311;50.298;8.514;2023-09-18T05:20:00;7.6;;;3.2;;
69197;SDS011;56311;50.298;8.514;2023-09-18T05:22:00;9.7;;;3.8;;
69197;SDS011;56311;50.298;8.514;2023-09-18T05:24:00;9.6;;;3.4;;
69197;SDS011;56311;50.298;8.514;2023-09-18T05:26:00;11.9;;;3.6;;
69197;SDS011;56311;50.298;8.514;2023-09-18T05:28:00;11.5;;;4.1;;
69197;SDS011;56311;50.298;8.514;2023-09-18T05:30:00;11.7;;;4.1;;
69197;SDS011;56311;50.298;8.514;2023-09-18T05:32:00;12.2;;;3.6;;
69197;SDS011;56311;50.298;8.514;2023-09-18T05:34:00;10.6;;;3.5;;
69197;SDS011;56311;50.298;8.514;2023-09-18T05:36:00;11.8;;;4.0;;
69197;SDS011;56311;50.298;8.514;2023-09-18T05:38:00;10.7;;;3.9;;
69197;SDS011;56311;50.298;8.514;2023-09-18T05:40:00;12.6;;;3.6;;
69197;SDS011;56311;50.298;8.514;2023-09-18T05:42:00;11.4;;;3.3;;
69197;SDS011;56311;50.298;8.514;2023-09-18T05:44:00;11.3;;;3.8;;
69197;SDS011;56311;50.298;8.514;2023-09-18T05:46:00;13.0;;;3.8;;
69197;SDS011;56311;50.298;8.514;2023-09-18T05:48:00;14.0;;;3.7;;
69197;SDS011;56311;50.298;8.514;2023-09-18T05:50:00;11.3;;;3.7;;
69197;SDS011;56311;50.298;8.514;2023-09-18T05:52:00;13.9;;;3.6;;
69197;SDS011;56311;50.298;8.514;2023-09-18T05:54:00;14.4;;;4.0;;
69197;SDS011;56311;50.298;8.514;2023-09-18T05:56:00;13.7;;;5.0;;
69197;SDS011;56311;50.298;8.514;2023-09-18T05:58:00;14.3;;;4.2;;
69197;SDS011;56311;50.298;8.514;2023-09-18T06:00:00;13.3;;;3.5;;
69197;SDS011;56311;50.298;8.514;2023-09-18T06:02:00;12.1;;;3.6;;
69197;SDS011;56311;50.298;8.514;2023-09-18T06:04:00;14.1;;;3.8;;
69197;SDS011;56311;50.298;8.514;2023-09-18T06:06:00;15.2;;;4.1;;
69197;SDS011;56311;50.298;8.514;2023-09-18T06:08:00;13.6;;;3.3;;
69197;SDS011;56311;50.298;8.514;2023-09-18T06:10:00;13.6;;;3.2;;
69197;SDS011;56311;50.298;8.514;2023-09-18T06:12:00;14.4;;;3.4;;
69197;SDS011;56311;50.298;8.514;2023-09-18T06:14:00;12.8;;;3.7;;
69197;SDS011;56311;50.298;8.514;2023-09-18T06:16:00;9.9;;;2.9;;
69197;SDS011;56311;50.298;8.514;2023-09-18T06:18:00;12.3;;;3.2;;
69197;SDS011;56311;50.298;8.514;2023-09-18T06:20:00;13.3;;;3.6;;
69197;SDS011;56311;50.298;8.514;2023-09-18T06:22:00;12.2;;;3.7;;
69197;SDS011;56311;50.298;8.514;2023-09-18T06:24:00;13.3;;;3.3;;
69197;SDS011;56311;50.298;8.514;2023-09-18T06:26:00;15.9;;;3.6;;
69197;SDS011;56311;50.298;8.514;2023-09-18T06:28:00;15.8;;;3.5;;
69197;SDS011;56311;50.298;8.514;2023-09-18T06:30:00;13.1;;;3.4;;
69197;SDS011;56311;50.298;8.514;2023-09-18T06:32:00;12.1;;;3.3;;
69197;SDS011;56311;50.298;8.514;2023-09-18T06:34:00;12.6;;;3.2;;
69197;SDS011;56311;50.298;8.514;2023-09-18T06:36:00;12.5;;;3.2;;
69197;SDS011;56311;50.298;8.514;2023-09-18T06:38:00;16.2;;;3.1;;
69197;SDS011;56311;50.298;8.514;2023-09-18T06:40:00;15.6;;;3.4;;
69197;SDS011;56311;50.298;8.514;2023-09-18T06:42:00;13.6;;;2.8;;
69197;SDS011;56311;50.298;8.514;2023-09-18T06:44:01;9.5;;;2.2;;
69197;SDS011;56311;50.298;8.514;2023-09-18T06:46:00;9.6;;;2.6;;
69197;SDS011;56311;50.298;8.514;2023-09-18T06:48:00;8.5;;;2.4;;
69197;SDS011;56311;50.298;8.514;2023-09-18T06:50:00;13.2;;;2.6;;
69197;SDS011;56311;50.298;8.514;2023-09-18T06:52:00;10.6;;;2.4;;
69197;SDS011;56311;50.298;8.514;2023-09-18T06:54:00;11.1;;;2.3;;
69197;SDS011;56311;50.298;8.514;2023-09-18T06:56:00;9.3;;;2.1;;
69197;SDS011;56311;50.298;8.514;2023-09-18T06:58:00;10.7;;;2.3;;
69197;SDS011;56311;50.298;8.514;2023-09-18T07:00:00;9.2;;;2.2;;
69197;SDS011;56311;50.298;8.514;2023-09-18T07:02:00;10.6;;;2.0;;
69197;SDS011;56311;50.298;8.514;2023-09-18T07:04:00;13.5;;;2.3;;
69197;SDS011;56311;50.298;8.514;2023-09-18T07:06:00;8.2;;;1.9;;
69197;SDS011;56311;50.298;8.514;2023-09-18T07:08:00;9.4;;;2.1;;
69197;SDS011;56311;50.298;8.514;2023-09-18T07:10:00;13.1;;;2.3;;
69197;SDS011;56311;50.298;8.514;2023-09-18T07:12:00;9.5;;;2.6;;
69197;SDS011;56311;50.298;8.514;2023-09-18T07:14:00;9.3;;;2.2;;
69197;SDS011;56311;50.298;8.514;2023-09-18T07:16:00;12.0;;;2.1;;
69197;SDS011;56311;50.298;8.514;2023-09-18T07:18:00;10.4;;;2.8;;
69197;SDS011;56311;50.298;8.514;2023-09-18T07:20:00;9.9;;;2.2;;
69197;SDS011;56311;50.298;8.514;2023-09-18T07:22:00;11.6;;;2.5;;
69197;SDS011;56311;50.298;8.514;2023-09-18T07:24:00;10.7;;;2.4;;
69197;SDS011;56311;50.298;8.514;2023-09-18T07:26:00;11.3;;;2.4;;
69197;SDS011;56311;50.298;8.514;2023-09-18T07:28:00;11.6;;;2.2;;
69197;SDS011;56311;50.298;8.514;2023-09-18T07:30:00;9.2;;;2.1;;
69197;SDS011;56311;50.298;8.514;2023-09-18T07:32:00;14.6;;;2.3;;
69197;SDS011;56311;50.298;8.514;2023-09-18T07:34:00;12.3;;;2.6;;
69197;SDS011;56311;50.298;8.514;2023-09-18T07:36:00;8.1;;;2.1;;
69197;SDS011;56311;50.298;8.514;2023-09-18T07:38:00;10.0;;;2.2;;
69197;SDS011;56311;50.298;8.514;2023-09-18T07:40:00;11.3;;;2.4;;
69197;SDS011;56311;50.298;8.514;2023-09-18T07:42:00;10.1;;;2.8;;
69197;SDS011;56311;50.298;8.514;2023-09-18T07:44:00;13.9;;;3.4;;
69197;SDS011;56311;50.298;8.514;2023-09-18T07:46:00;10.3;;;2.6;;
69197;SDS011;56311;50.298;8.514;2023-09-18T07:48:00;13.3;;;2.3;;
69197;SDS011;56311;50.298;8.514;2023-09-18T07:50:00;9.0;;;2.2;;
69197;SDS011;56311;50.298;8.514;2023-09-18T07:52:00;11.9;;;2.5;;
69197;SDS011;56311;50.298;8.514;2023-09-18T07:54:00;11.9;;;2.6;;
69197;SDS011;56311;50.298;8.514;2023-09-18T07:56:00;12.9;;;2.4;;
69197;SDS011;56311;50.298;8.514;2023-09-18T07:58:00;11.9;;;2.4;;
69197;SDS011;56311;50.298;8.514;2023-09-18T08:00:00;10.7;;;2.5;;
69197;SDS011;56311;50.298;8.514;2023-09-18T08:02:00;12.7;;;2.2;;
69197;SDS011;56311;50.298;8.514;2023-09-18T08:04:00;11.4;;;2.6;;
69197;SDS011;56311;50.298;8.514;2023-09-18T08:06:00;9.4;;;2.3;;
69197;SDS011;56311;50.298;8.514;2023-09-18T08:08:00;10.8;;;2.1;;
69197;SDS011;56311;50.298;8.514;2023-09-18T08:10:00;10.4;;;2.4;;
69197;SDS011;56311;50.298;8.514;2023-09-18T08:12:01;9.9;;;2.4;;
69197;SDS011;56311;50.298;8.514;2023-09-18T08:14:00;11.3;;;2.2;;
69197;SDS011;56311;50.298;8.514;2023-09-18T08:16:00;11.7;;;2.5;;
69197;SDS011;56311;50.298;8.514;2023-09-18T08:18:00;10.1;;;2.7;;
69197;SDS011;56311;50.298;8.514;2023-09-18T08:20:00;11.2;;;2.2;;
69197;SDS011;56311;50.298;8.514;2023-09-18T08:22:00;11.2;;;2.1;;
69197;SDS011;56311;50.298;8.514;2023-09-18T08:24:00;7.7;;;2.2;;
69197;SDS011;56311;50.298;8.514;2023-09-18T08:26:00;12.6;;;2.4;;
69197;SDS011;56311;50.298;8.514;2023-09-18T08:28:00;10.1;;;2.4;;
69197;SDS011;56311;50.298;8.514;2023-09-18T08:30:00;9.0;;;2.5;;
69197;SDS011;56311;50.298;8.514;2023-09-18T08:32:00;13.8;;;2.4;;
69197;SDS011;56311;50.298;8.514;2023-09-18T08:34:00;11.9;;;2.6;;
69197;SDS011;56311;50.298;8.514;2023-09-18T08:36:00;14.3;;;2.3;;
69197;SDS011;56311;50.298;8.514;2023-09-18T08:38:00;9.1;;;2.1;;
69197;SDS011;56311;50.298;8.514;2023-09-18T08:40:00;15.1;;;2.7;;
69197;SDS011;56311;50.298;8.514;2023-09-18T08:42:02;10.4;;;2.1;;
69197;SDS011;56311;50.298;8.514;2023-09-18T08:44:01;9.5;;;2.1;;
69197;SDS011;56311;50.298;8.514;2023-09-18T08:46:00;9.7;;;2.3;;
69197;SDS011;56311;50.298;8.514;2023-09-18T08:48:00;28.7;;;22.8;;
69197;SDS011;56311;50.298;8.514;2023-09-18T08:50:00;15.6;;;4.1;;
69197;SDS011;56311;50.298;8.514;2023-09-18T08:52:00;12.0;;;3.9;;
69197;SDS011;56311;50.298;8.514;2023-09-18T08:54:00;10.8;;;2.3;;
69197;SDS011;56311;50.298;8.514;2023-09-18T08:56:00;9.4;;;2.4;;
69197;SDS011;56311;50.298;8.514;2023-09-18T08:58:00;11.5;;;2.4;;
69197;SDS011;56311;50.298;8.514;2023-09-18T09:00:01;12.4;;;2.5;;
69197;SDS011;56311;50.298;8.514;2023-09-18T09:02:00;9.3;;;2.4;;
69197;SDS011;56311;50.298;8.514;2023-09-18T09:04:00;11.4;;;2.2;;
69197;SDS011;56311;50.298;8.514;2023-09-18T09:06:00;10.5;;;2.4;;
69197;SDS011;56311;50.298;8.514;2023-09-18T09:08:00;10.1;;;2.2;;
69197;SDS011;56311;50.298;8.514;2023-09-18T09:10:00;10.4;;;1.9;;
69197;SDS011;56311;50.298;8.514;2023-09-18T09:12:00;8.5;;;1.8;;
69197;SDS011;56311;50.298;8.514;2023-09-18T09:14:09;10.5;;;2.1;;
69197;SDS011;56311;50.298;8.514;2023-09-18T09:16:00;8.8;;;2.3;;
69197;SDS011;56311;50.298;8.514;2023-09-18T09:18:02;8.0;;;2.0;;
69197;SDS011;56311;50.298;8.514;2023-09-18T09:20:07;8.5;;;2.1;;
69197;SDS011;56311;50.298;8.514;2023-09-18T09:22:00;10.2;;;2.2;;
69197;SDS011;56311;50.298;8.514;2023-09-18T09:24:00;9.6;;;1.9;;
69197;SDS011;56311;50.298;8.514;2023-09-18T09:28:00;9.6;;;2.5;;
69197;SDS011;56311;50.298;8.514;2023-09-18T09:30:00;8.3;;;2.3;;
69197;SDS011;56311;50.298;8.514;2023-09-18T09:34:00;7.6;;;2.1;;
69197;SDS011;56311;50.298;8.514;2023-09-18T09:36:00;8.7;;;2.0;;
69197;SDS011;56311;50.298;8.514;2023-09-18T09:38:01;7.8;;;2.0;;
69197;SDS011;56311;50.298;8.514;2023-09-18T09:40:03;9.7;;;1.8;;
69197;SDS011;56311;50.298;8.514;2023-09-18T09:42:01;8.5;;;2.0;;
69197;SDS011;56311;50.298;8.514;2023-09-18T09:44:00;7.1;;;2.0;;
69197;SDS011;56311;50.298;8.514;2023-09-18T09:46:00;10.6;;;2.3;;
69197;SDS011;56311;50.298;8.514;2023-09-18T09:48:00;8.7;;;2.0;;
69197;SDS011;56311;50.298;8.514;2023-09-18T09:50:05;7.2;;;1.6;;
69197;SDS011;56311;50.298;8.514;2023-09-18T09:52:00;6.4;;;1.4;;
69197;SDS011;56311;50.298;8.514;2023-09-18T09:54:00;6.9;;;1.8;;
69197;SDS011;56311;50.298;8.514;2023-09-18T09:56:00;8.3;;;1.6;;
69197;SDS011;56311;50.298;8.514;2023-09-18T09:58:00;6.8;;;1.5;;
69197;SDS011;56311;50.298;8.514;2023-09-18T10:00:04;6.9;;;1.7;;
69197;SDS011;56311;50.298;8.514;2023-09-18T10:02:00;7.3;;;1.4;;
69197;SDS011;56311;50.298;8.514;2023-09-18T10:04:01;7.2;;;1.9;;
69197;SDS011;56311;50.298;8.514;2023-09-18T10:06:00;7.1;;;1.5;;
69197;SDS011;56311;50.298;8.514;2023-09-18T10:08:02;11.0;;;7.0;;
69197;SDS011;56311;50.298;8.514;2023-09-18T10:10:00;8.5;;;2.6;;
69197;SDS011;56311;50.298;8.514;2023-09-18T10:12:00;6.4;;;1.6;;
69197;SDS011;56311;50.298;8.514;2023-09-18T10:14:02;7.6;;;1.9;;
69197;SDS011;56311;50.298;8.514;2023-09-18T10:16:00;7.3;;;1.5;;
69197;SDS011;56311;50.298;8.514;2023-09-18T10:18:00;6.0;;;1.5;;
69197;SDS011;56311;50.298;8.514;2023-09-18T10:20:01;7.6;;;1.5;;
69197;SDS011;56311;50.298;8.514;2023-09-18T10:22:01;7.3;;;1.6;;
69197;SDS011;56311;50.298;8.514;2023-09-18T10:24:02;7.5;;;1.8;;
69197;SDS011;56311;50.298;8.514;2023-09-18T10:26:00;5.8;;;1.2;;
69197;SDS011;56311;50.298;8.514;2023-09-18T10:28:00;6.4;;;1.5;;
69197;SDS011;56311;50.298;8.514;2023-09-18T10:30:00;6.1;;;1.1;;
69197;SDS011;56311;50.298;8.514;2023-09-18T10:32:00;6.8;;;1.2;;
69197;SDS011;56311;50.298;8.514;2023-09-18T10:34:00;5.3;;;1.4;;
69197;SDS011;56311;50.298;8.514;2023-09-18T10:36:01;6.5;;;1.1;;
69197;SDS011;56311;50.298;8.514;2023-09-18T10:38:00;5.2;;;1.1;;
69197;SDS011;56311;50.298;8.514;2023-09-18T10:40:00;5.3;;;1.1;;
69197;SDS011;56311;50.298;8.514;2023-09-18T10:42:00;4.6;;;1.4;;
69197;SDS011;56311;50.298;8.514;2023-09-18T10:44:00;5.5;;;1.2;;
69197;SDS011;56311;50.298;8.514;2023-09-18T10:46:00;5.7;;;1.3;;
69197;SDS011;56311;50.298;8.514;2023-09-18T10:48:00;5.4;;;1.3;;
69197;SDS011;56311;50.298;8.514;2023-09-18T10:50:01;6.7;;;1.5;;
69197;SDS011;56311;50.298;8.514;2023-09-18T10:52:00;7.5;;;1.3;;
69197;SDS011;56311;50.298;8.514;2023-09-18T10:54:00;6.1;;;1.5;;
69197;SDS011;56311;50.298;8.514;2023-09-18T10:56:01;6.4;;;1.5;;
69197;SDS011;56311;50.298;8.514;2023-09-18T10:58:00;5.4;;;1.3;;
69197;SDS011;56311;50.298;8.514;2023-09-18T11:00:00;6.7;;;1.5;;
69197;SDS011;56311;50.298;8.514;2023-09-18T11:02:02;4.5;;;1.4;;
69197;SDS011;56311;50.298;8.514;2023-09-18T11:04:00;4.5;;;1.3;;
69197;SDS011;56311;50.298;8.514;2023-09-18T11:06:02;6.8;;;1.4;;
69197;SDS011;56311;50.298;8.514;2023-09-18T11:10:00;4.6;;;1.4;;
69197;SDS011;56311;50.298;8.514;2023-09-18T11:12:03;5.3;;;1.5;;
69197;SDS011;56311;50.298;8.514;2023-09-18T11:14:00;6.4;;;1.5;;
69197;SDS011;56311;50.298;8.514;2023-09-18T11:16:01;4.7;;;1.4;;
69197;SDS011;56311;50.298;8.514;2023-09-18T11:18:01;5.9;;;1.9;;
69197;SDS011;56311;50.298;8.514;2023-09-18T11:20:02;6.6;;;3.8;;
69197;SDS011;56311;50.298;8.514;2023-09-18T11:22:06;6.9;;;2.3;;
69197;SDS011;56311;50.298;8.514;2023-09-18T11:24:00;6.3;;;2.6;;
69197;SDS011;56311;50.298;8.514;2023-09-18T11:26:03;9.7;;;3.0;;
69197;SDS011;56311;50.298;8.514;2023-09-18T11:28:00;5.5;;;1.7;;
69197;SDS011;56311;50.298;8.514;2023-09-18T11:30:00;6.7;;;2.0;;
69197;SDS011;56311;50.298;8.514;2023-09-18T11:32:00;4.7;;;1.7;;
69197;SDS011;56311;50.298;8.514;2023-09-18T11:34:00;5.0;;;1.9;;
69197;SDS011;56311;50.298;8.514;2023-09-18T11:36:02;6.4;;;1.9;;
69197;SDS011;56311;50.298;8.514;2023-09-18T11:38:04;9.0;;;2.2;;
69197;SDS011;56311;50.298;8.514;2023-09-18T11:40:00;5.5;;;1.7;;
69197;SDS011;56311;50.298;8.514;2023-09-18T11:46:00;5.6;;;1.9;;
69197;SDS011;56311;50.298;8.514;2023-09-18T11:48:00;5.0;;;1.9;;
69197;SDS011;56311;50.298;8.514;2023-09-18T11:50:00;5.0;;;1.9;;
69197;SDS011;56311;50.298;8.514;2023-09-18T11:52:00;6.1;;;2.0;;
69197;SDS011;56311;50.298;8.514;2023-09-18T11:54:02;6.4;;;2.3;;
69197;SDS011;56311;50.298;8.514;2023-09-18T11:56:00;6.8;;;2.3;;
69197;SDS011;56311;50.298;8.514;2023-09-18T11:58:00;5.6;;;2.2;;
69197;SDS011;56311;50.298;8.514;2023-09-18T12:00:00;6.5;;;2.3;;
69197;SDS011;56311;50.298;8.514;2023-09-18T12:02:00;5.9;;;2.4;;
69197;SDS011;56311;50.298;8.514;2023-09-18T12:04:00;5.2;;;2.4;;
69197;SDS011;56311;50.298;8.514;2023-09-18T12:06:00;6.5;;;2.7;;
69197;SDS011;56311;50.298;8.514;2023-09-18T12:08:00;5.5;;;2.6;;
69197;SDS011;56311;50.298;8.514;2023-09-18T12:10:00;5.0;;;2.7;;
69197;SDS011;56311;50.298;8.514;2023-09-18T12:12:00;7.6;;;2.6;;
69197;SDS011;56311;50.298;8.514;2023-09-18T12:14:00;5.9;;;2.5;;
69197;SDS011;56311;50.298;8.514;2023-09-18T12:16:02;6.5;;;2.5;;
69197;SDS011;56311;50.298;8.514;2023-09-18T12:18:05;5.7;;;2.6;;
69197;SDS011;56311;50.298;8.514;2023-09-18T12:20:00;6.0;;;2.4;;
69197;SDS011;56311;50.298;8.514;2023-09-18T12:22:00;6.2;;;2.6;;
69197;SDS011;56311;50.298;8.514;2023-09-18T12:24:00;6.5;;;2.8;;
69197;SDS011;56311;50.298;8.514;2023-09-18T12:26:00;11.4;;;8.6;;
69197;SDS011;56311;50.298;8.514;2023-09-18T12:28:00;9.8;;;4.5;;
69197;SDS011;56311;50.298;8.514;2023-09-18T12:30:00;6.1;;;2.5;;